Time;durP1;ratioP1;P1;durP2;ratioP2;P2;SDS_P1;SDS_P2;PMS_P1;PMS_P2;Temp;Humidity;BMP_temperature;BMP_pressure;BME280_temperature;BME280_humidity;BME280_pressure;Samples;Min_cycle;Max_cycle;Signal;HPM_P1;HPM_P2
2024/02/01 00:00:59;;;;;;;;;;;;;;;4.22;100.00;96775.75;10432667;28;2151;-66
2024/02/01 00:06:02;;;;;;;;;;;;;;;4.30;100.00;96764.88;10432333;28;1951;-66
2024/02/01 00:11:05;;;;;;;;;;;;;;;4.44;100.00;96755.00;10431698;28;2481;-66
2024/02/01 00:16:07;;;;;;;;;;;;;;;4.52;100.00;96745.97;10436319;28;2131;-68
2024/02/01 00:21:11;;;;;;;;;;;;;;;4.49;100.00;96762.34;10433339;28;2089;-66
2024/02/01 00:26:14;;;;;;;;;;;;;;;4.51;100.00;96762.94;10433968;28;1997;-66
2024/02/01 00:31:17;;;;;;;;;;;;;;;4.48;100.00;96758.88;10434248;28;2193;-68
2024/02/01 00:36:19;;;;;;;;;;;;;;;4.52;100.00;96760.09;10437235;28;2141;-69
2024/02/01 00:41:22;;;;;;;;;;;;;;;4.51;100.00;96763.78;10436230;28;2253;-67
2024/02/01 00:46:25;;;;;;;;;;;;;;;4.48;100.00;96761.53;10436900;28;2123;-66
2024/02/01 00:51:28;;;;;;;;;;;;;;;4.43;100.00;96777.31;10431842;28;2076;-68
2024/02/01 00:56:31;;;;;;;;;;;;;;;4.29;100.00;96787.19;10419940;28;2275;-66
2024/02/01 01:01:33;;;;;;;;;;;;;;;4.24;100.00;96791.50;10436244;28;2478;-66
2024/02/01 01:06:36;;;;;;;;;;;;;;;4.17;100.00;96775.56;10434805;28;2556;-66
2024/02/01 01:11:39;;;;;;;;;;;;;;;4.04;100.00;96778.25;10429270;28;2246;-65
2024/02/01 01:16:42;;;;;;;;;;;;;;;3.96;100.00;96781.13;10434755;28;2130;-67
2024/02/01 01:21:45;;;;;;;;;;;;;;;3.94;100.00;96757.38;10433099;28;2115;-66
2024/02/01 01:26:47;;;;;;;;;;;;;;;4.01;100.00;96757.41;10429828;28;2080;-65
2024/02/01 01:31:49;;;;;;;;;;;;;;;4.03;100.00;96760.66;10430209;28;2216;-71
2024/02/01 01:36:52;;;;;;;;;;;;;;;4.14;100.00;96752.03;10411325;28;2199;-67
2024/02/01 01:41:54;;;;;;;;;;;;;;;4.41;100.00;96763.41;10426900;28;2515;-68
2024/02/01 01:46:57;;;;;;;;;;;;;;;4.62;100.00;96748.97;10427612;28;2029;-66
2024/02/01 01:51:59;;;;;;;;;;;;;;;4.86;100.00;96753.56;10429327;28;2003;-70
2024/02/01 01:57:03;;;;;;;;;;;;;;;5.11;100.00;96758.97;10430462;28;2187;-66
2024/02/01 02:02:05;;;;;;;;;;;;;;;5.31;100.00;96750.03;10428651;28;2125;-65
2024/02/01 02:07:09;;;;;;;;;;;;;;;5.33;100.00;96746.09;10428434;28;2131;-68
2024/02/01 02:12:11;;;;;;;;;;;;;;;5.46;100.00;96752.34;10428971;28;2149;-66
2024/02/01 02:17:14;;;;;;;;;;;;;;;5.52;100.00;96754.16;10427526;28;2315;-70
2024/02/01 02:22:16;;;;;;;;;;;;;;;5.61;100.00;96744.88;10434856;28;2188;-65
2024/02/01 02:27:20;;;;;;;;;;;;;;;5.74;100.00;96752.75;10427775;28;2385;-68
2024/02/01 02:32:23;;;;;;;;;;;;;;;5.89;100.00;96755.88;10414400;28;2135;-66
2024/02/01 02:37:25;;;;;;;;;;;;;;;5.96;100.00;96754.00;10428371;28;2080;-67
2024/02/01 02:42:28;;;;;;;;;;;;;;;6.05;100.00;96756.41;10425870;28;2073;-67
2024/02/01 02:47:31;;;;;;;;;;;;;;;6.10;100.00;96760.00;10428960;28;2123;-66
2024/02/01 02:52:33;;;;;;;;;;;;;;;6.18;100.00;96754.41;10428245;28;2064;-66
2024/02/01 02:57:36;;;;;;;;;;;;;;;6.25;100.00;96759.69;10426968;28;2119;-65
2024/02/01 03:02:39;;;;;;;;;;;;;;;6.34;100.00;96750.31;10427953;28;2136;-67
2024/02/01 03:07:41;;;;;;;;;;;;;;;6.44;100.00;96747.13;10426506;28;2222;-65
2024/02/01 03:12:44;;;;;;;;;;;;;;;6.58;100.00;96747.78;10424624;28;2135;-66
2024/02/01 03:17:46;;;;;;;;;;;;;;;6.53;100.00;96745.78;10422233;28;2393;-65
2024/02/01 03:22:54;;;;;;;;;;;;;;;6.57;100.00;96746.16;10426947;28;2036;-66
2024/02/01 03:28:00;;;;;;;;;;;;;;;6.58;100.00;96753.94;10430046;28;2171;-67
2024/02/01 03:33:03;;;;;;;;;;;;;;;6.63;100.00;96739.94;10430388;28;2044;-70
2024/02/01 03:38:08;;;;;;;;;;;;;;;6.65;100.00;96738.66;10432167;28;2190;-69
2024/02/01 03:43:12;;;;;;;;;;;;;;;6.69;100.00;96734.50;10436885;28;2024;-72
2024/02/01 03:48:14;;;;;;;;;;;;;;;6.76;100.00;96745.91;10432190;28;2147;-72
2024/02/01 03:53:18;;;;;;;;;;;;;;;6.84;100.00;96734.09;10432914;28;2144;-66
2024/02/01 03:58:21;;;;;;;;;;;;;;;6.80;100.00;96740.09;10437161;28;2369;-65
2024/02/01 04:03:24;;;;;;;;;;;;;;;6.84;100.00;96728.75;10435208;28;2003;-66
2024/02/01 04:08:27;;;;;;;;;;;;;;;6.93;100.00;96735.38;10435935;28;1988;-67
2024/02/01 04:13:30;;;;;;;;;;;;;;;6.97;100.00;96741.94;10435059;28;2064;-69
2024/02/01 04:18:32;;;;;;;;;;;;;;;7.02;100.00;96750.09;10429854;28;2068;-67
2024/02/01 04:23:35;;;;;;;;;;;;;;;7.05;100.00;96736.25;10433634;28;2116;-66
2024/02/01 04:28:38;;;;;;;;;;;;;;;7.00;100.00;96736.13;10430663;28;2245;-66
2024/02/01 04:33:41;;;;;;;;;;;;;;;6.89;100.00;96747.59;10432486;28;2022;-66
2024/02/01 04:38:44;;;;;;;;;;;;;;;6.90;100.00;96751.09;10430340;28;2202;-66
2024/02/01 04:43:46;;;;;;;;;;;;;;;6.85;100.00;96762.44;10431013;28;2451;-66
2024/02/01 04:48:49;;;;;;;;;;;;;;;6.87;100.00;96756.88;10432969;28;2185;-65
2024/02/01 04:53:51;;;;;;;;;;;;;;;6.88;100.00;96759.34;10431058;28;2053;-65
2024/02/01 04:58:56;;;;;;;;;;;;;;;6.90;100.00;96751.91;10433916;28;2096;-68
2024/02/01 05:03:59;;;;;;;;;;;;;;;6.91;100.00;96752.72;10434958;28;2387;-67
2024/02/01 05:09:02;;;;;;;;;;;;;;;6.90;100.00;96751.91;10432781;28;2080;-66
2024/02/01 05:14:10;;;;;;;;;;;;;;;6.82;100.00;96749.53;10432398;28;2381;-67
2024/02/01 05:19:13;;;;;;;;;;;;;;;6.75;100.00;96740.81;10433627;28;2334;-69
2024/02/01 05:24:16;;;;;;;;;;;;;;;6.82;100.00;96735.38;10436432;28;2057;-66
2024/02/01 05:29:19;;;;;;;;;;;;;;;6.75;100.00;96722.91;10431656;28;2767;-67
2024/02/01 05:34:21;;;;;;;;;;;;;;;6.73;100.00;96726.84;10430882;28;2194;-66
2024/02/01 05:39:27;;;;;;;;;;;;;;;6.77;100.00;96725.34;10428678;28;2072;-66
2024/02/01 05:44:30;;;;;;;;;;;;;;;6.78;100.00;96724.31;10431796;28;2025;-67
2024/02/01 05:49:33;;;;;;;;;;;;;;;6.81;100.00;96721.19;10428036;28;2166;-66
2024/02/01 05:54:36;;;;;;;;;;;;;;;6.85;100.00;96722.34;10427458;28;2041;-67
2024/02/01 05:59:39;;;;;;;;;;;;;;;6.92;100.00;96728.41;10427171;28;2076;-66
2024/02/01 06:04:42;;;;;;;;;;;;;;;7.02;100.00;96722.53;10428191;28;2132;-67
2024/02/01 06:09:45;;;;;;;;;;;;;;;7.02;100.00;96715.34;10426916;28;2506;-72
2024/02/01 06:14:48;;;;;;;;;;;;;;;7.06;100.00;96710.31;10429884;28;2092;-75
2024/02/01 06:19:50;;;;;;;;;;;;;;;7.20;100.00;96719.00;10427834;28;2212;-68
2024/02/01 06:24:53;;;;;;;;;;;;;;;7.21;100.00;96726.78;10431190;28;2324;-69
2024/02/01 06:29:58;;;;;;;;;;;;;;;7.28;100.00;96721.31;10430307;28;2385;-66
2024/02/01 06:35:06;;;;;;;;;;;;;;;7.34;100.00;96717.75;10428293;28;2296;-67
2024/02/01 06:40:26;;;;;;;;;;;;;;;7.39;100.00;96715.19;10428582;28;2021;-67
2024/02/01 06:45:29;;;;;;;;;;;;;;;7.39;100.00;96717.06;10429238;28;2132;-66
2024/02/01 06:50:46;;;;;;;;;;;;;;;7.39;100.00;96701.81;10429790;28;2149;-65
2024/02/01 06:55:57;;;;;;;;;;;;;;;7.38;100.00;96678.78;10431725;28;2259;-65
2024/02/01 07:01:13;;;;;;;;;;;;;;;7.45;100.00;96674.16;10432681;28;2052;-66
2024/02/01 07:06:28;;;;;;;;;;;;;;;7.48;100.00;96681.69;10430918;28;2518;-67
2024/02/01 07:11:31;;;;;;;;;;;;;;;7.55;100.00;96682.41;10441307;28;2237;-65
2024/02/01 07:16:43;;;;;;;;;;;;;;;7.63;100.00;96685.75;10445278;28;2132;-67
2024/02/01 07:22:05;;;;;;;;;;;;;;;7.65;100.00;96687.19;10440035;28;2076;-66
2024/02/01 07:59:10;;;;;;;;;;;;;;;7.71;100.00;96760.38;10433714;28;2112;-65
2024/02/01 08:04:16;;;;;;;;;;;;;;;7.43;100.00;96775.19;10434803;28;2061;-67
2024/02/01 08:09:18;;;;;;;;;;;;;;;7.12;100.00;96786.94;10436164;28;2388;-68
2024/02/01 08:14:21;;;;;;;;;;;;;;;6.97;100.00;96800.72;10437882;28;2134;-65
2024/02/01 08:19:24;;;;;;;;;;;;;;;6.69;100.00;96806.63;10432836;28;2253;-65
2024/02/01 08:24:41;;;;;;;;;;;;;;;6.55;100.00;96823.03;10435203;28;2076;-66
2024/02/01 08:29:44;;;;;;;;;;;;;;;6.46;100.00;96826.00;10435489;28;2257;-66
2024/02/01 08:34:47;;;;;;;;;;;;;;;6.40;100.00;96839.41;10433764;28;2514;-68
2024/02/01 08:39:50;;;;;;;;;;;;;;;6.40;100.00;96836.75;10430730;28;2021;-66
2024/02/01 08:44:53;;;;;;;;;;;;;;;6.45;100.00;96845.72;10428345;28;2275;-67
2024/02/01 08:50:06;;;;;;;;;;;;;;;6.43;100.00;96831.78;10430654;28;1995;-66
2024/02/01 08:55:10;;;;;;;;;;;;;;;6.42;100.00;96819.44;10426598;28;2084;-66
2024/02/01 09:00:25;;;;;;;;;;;;;;;6.44;100.00;96817.41;10426921;28;2139;-67
2024/02/01 09:05:28;;;;;;;;;;;;;;;6.51;100.00;96817.31;10429077;28;2115;-66
2024/02/01 09:10:31;;;;;;;;;;;;;;;6.49;100.00;96809.53;10428767;28;2107;-67
2024/02/01 09:15:35;;;;;;;;;;;;;;;6.55;100.00;96815.81;10433068;28;2637;-67
2024/02/01 09:20:37;;;;;;;;;;;;;;;6.66;100.00;96830.31;10429538;28;2211;-67
2024/02/01 09:25:41;;;;;;;;;;;;;;;6.59;100.00;96824.22;10428788;28;2156;-67
2024/02/01 09:30:45;;;;;;;;;;;;;;;6.63;100.00;96836.09;10427876;28;2151;-67
2024/02/01 09:35:47;;;;;;;;;;;;;;;6.61;100.00;96838.16;10427826;28;2087;-66
2024/02/01 09:40:51;;;;;;;;;;;;;;;6.66;100.00;96843.66;10428719;28;2304;-66
2024/02/01 09:45:55;;;;;;;;;;;;;;;6.68;100.00;96834.41;10428876;28;2045;-67
2024/02/01 09:50:58;;;;;;;;;;;;;;;6.59;100.00;96840.25;10428560;28;2041;-66
2024/02/01 09:56:04;;;;;;;;;;;;;;;6.47;100.00;96843.66;10426406;28;2398;-65
2024/02/01 10:01:09;;;;;;;;;;;;;;;6.46;100.00;96835.88;10426100;28;2050;-73
2024/02/01 10:06:12;;;;;;;;;;;;;;;6.36;100.00;96849.75;10420682;28;2022;-67
2024/02/01 10:11:19;;;;;;;;;;;;;;;6.33;100.00;96842.16;10423767;28;2138;-65
2024/02/01 10:16:24;;;;;;;;;;;;;;;6.33;100.00;96836.81;10429311;28;2017;-66
2024/02/01 10:21:26;;;;;;;;;;;;;;;6.26;100.00;96835.25;10413693;28;2170;-66
2024/02/01 10:26:52;;;;;;;;;;;;;;;6.35;100.00;96839.25;10427920;28;2297;-65
2024/02/01 10:31:56;;;;;;;;;;;;;;;6.35;100.00;96832.06;10427065;28;2172;-67
2024/02/01 10:37:06;;;;;;;;;;;;;;;6.34;100.00;96832.28;10424540;28;2058;-68
2024/02/01 10:42:13;;;;;;;;;;;;;;;6.27;100.00;96840.38;10409538;28;2564;-68
2024/02/01 10:47:20;;;;;;;;;;;;;;;6.30;100.00;96834.59;10416767;28;2248;-67
2024/02/01 10:52:23;;;;;;;;;;;;;;;6.31;100.00;96833.56;10402408;28;2345;-67
2024/02/01 10:57:29;;;;;;;;;;;;;;;6.38;100.00;96818.28;10434037;28;1959;-71
2024/02/01 11:02:34;;;;;;;;;;;;;;;6.46;100.00;96822.50;10437712;28;1994;-65
2024/02/01 11:07:37;;;;;;;;;;;;;;;6.66;100.00;96825.78;10433033;28;2204;-66
2024/02/01 11:12:42;;;;;;;;;;;;;;;6.66;100.00;96812.41;10417819;28;2093;-65
2024/02/01 11:17:47;;;;;;;;;;;;;;;6.66;100.00;96808.94;10439188;28;2080;-65
2024/02/01 11:23:13;;;;;;;;;;;;;;;6.75;100.00;96819.09;10434727;28;2131;-71
2024/02/01 11:28:19;;;;;;;;;;;;;;;6.69;100.00;96803.16;10433221;28;2155;-65
2024/02/01 11:38:47;;;;;;;;;;;;;;;6.59;100.00;96795.66;10413103;28;2147;-67
2024/02/01 11:43:59;;;;;;;;;;;;;;;6.47;100.00;96806.25;10431181;28;2320;-65
2024/02/01 11:49:05;;;;;;;;;;;;;;;6.39;100.00;96809.22;10428814;28;2108;-74
2024/02/01 11:54:13;;;;;;;;;;;;;;;6.31;100.00;96814.88;10428533;28;2115;-66
2024/02/01 11:59:49;;;;;;;;;;;;;;;6.29;100.00;96816.91;10415114;28;2087;-65
2024/02/01 12:04:58;;;;;;;;;;;;;;;6.41;100.00;96801.81;10415925;28;2081;-67
2024/02/01 12:10:11;;;;;;;;;;;;;;;6.57;100.00;96799.59;10431264;28;2213;-67
2024/02/01 12:15:17;;;;;;;;;;;;;;;6.76;100.00;96801.22;10430009;28;2357;-66
2024/02/01 12:20:20;;;;;;;;;;;;;;;6.82;100.00;96792.31;10424087;28;2058;-66
2024/02/01 12:25:24;;;;;;;;;;;;;;;6.82;100.00;96792.31;10417603;28;2219;-66
2024/02/01 12:30:31;;;;;;;;;;;;;;;6.84;100.00;96800.91;10432296;28;2225;-68
2024/02/01 12:35:35;;;;;;;;;;;;;;;6.86;100.00;96793.47;10431909;28;2153;-67
2024/02/01 12:40:39;;;;;;;;;;;;;;;6.81;100.00;96790.69;10429963;28;2228;-66
2024/02/01 12:45:46;;;;;;;;;;;;;;;6.76;100.00;96787.84;10429292;28;2037;-67
2024/02/01 12:50:58;;;;;;;;;;;;;;;6.88;100.00;96795.94;10415401;28;2393;-68
2024/02/01 12:56:03;;;;;;;;;;;;;;;6.77;100.00;96789.47;10412023;28;2376;-68
2024/02/01 13:01:09;;;;;;;;;;;;;;;6.76;100.00;96788.66;10429955;28;2166;-69
2024/02/01 13:06:14;;;;;;;;;;;;;;;6.78;100.00;96796.44;10410187;28;2049;-68
2024/02/01 13:11:28;;;;;;;;;;;;;;;6.62;100.00;96797.88;10412287;28;2187;-70
2024/02/01 13:16:34;;;;;;;;;;;;;;;6.62;100.00;96802.41;10417014;28;1948;-69
2024/02/01 13:21:37;;;;;;;;;;;;;;;6.70;100.00;96799.44;10418077;28;2196;-71
2024/02/01 13:26:44;;;;;;;;;;;;;;;6.85;100.00;96804.38;10433590;28;2302;-71
2024/02/01 13:31:50;;;;;;;;;;;;;;;6.81;100.00;96801.38;10422660;28;2127;-73
2024/02/01 13:36:53;;;;;;;;;;;;;;;6.86;100.00;96808.69;10428474;28;2178;-74
2024/02/01 13:41:59;;;;;;;;;;;;;;;6.77;100.00;96811.69;10433773;28;2139;-75
2024/02/01 13:47:06;;;;;;;;;;;;;;;6.82;100.00;96805.66;10428681;28;2072;-66
2024/02/01 13:52:09;;;;;;;;;;;;;;;6.88;100.00;96801.28;10429537;28;1994;-65
2024/02/01 13:57:14;;;;;;;;;;;;;;;6.88;100.00;96791.41;10394974;28;2732;-65
2024/02/01 14:02:20;;;;;;;;;;;;;;;7.03;100.00;96778.44;10428390;28;2119;-67
2024/02/01 14:07:26;;;;;;;;;;;;;;;7.06;100.00;96777.16;10411680;28;2188;-67
2024/02/01 14:12:30;;;;;;;;;;;;;;;7.19;100.00;96792.22;10427686;28;2138;-73
2024/02/01 14:17:39;;;;;;;;;;;;;;;7.32;100.00;96798.22;10432419;28;2059;-67
2024/02/01 14:22:44;;;;;;;;;;;;;;;7.42;100.00;96805.66;10429391;28;2024;-67
2024/02/01 14:27:49;;;;;;;;;;;;;;;7.40;100.00;96801.59;10428710;28;2262;-72
2024/02/01 14:32:52;;;;;;;;;;;;;;;7.36;100.00;96819.13;10415352;28;2196;-73
2024/02/01 14:37:56;;;;;;;;;;;;;;;7.30;100.00;96826.22;10428275;28;2134;-73
2024/02/01 14:43:00;;;;;;;;;;;;;;;7.17;100.00;96826.41;10398395;28;3767;-72
2024/02/01 14:48:06;;;;;;;;;;;;;;;7.13;100.00;96830.56;10426623;28;2011;-66
2024/02/01 14:53:09;;;;;;;;;;;;;;;6.97;100.00;96837.34;10427257;28;2052;-66
2024/02/01 14:58:14;;;;;;;;;;;;;;;7.00;100.00;96843.06;10426089;28;2006;-66
2024/02/01 15:03:19;;;;;;;;;;;;;;;6.98;100.00;96838.97;10423813;28;2054;-66
2024/02/01 15:08:27;;;;;;;;;;;;;;;6.93;100.00;96847.66;10426910;28;2076;-69
2024/02/01 15:13:32;;;;;;;;;;;;;;;6.87;100.00;96840.56;10428370;28;2142;-70
2024/02/01 15:18:38;;;;;;;;;;;;;;;6.83;100.00;96842.03;10430826;28;2140;-66
2024/02/01 15:23:45;;;;;;;;;;;;;;;6.83;100.00;96835.88;10405824;28;2549;-68
2024/02/01 15:28:55;;;;;;;;;;;;;;;6.88;100.00;96850.22;10430521;28;2277;-72
2024/02/01 15:34:04;;;;;;;;;;;;;;;6.89;100.00;96851.84;10417863;28;2209;-66
2024/02/01 15:39:14;;;;;;;;;;;;;;;6.93;100.00;96853.00;10430175;28;2086;-66
2024/02/01 15:44:22;;;;;;;;;;;;;;;6.81;100.00;96862.84;10432933;28;2037;-67
2024/02/01 15:49:29;;;;;;;;;;;;;;;6.80;100.00;96855.00;10433422;28;2204;-67
2024/02/01 15:54:33;;;;;;;;;;;;;;;6.81;100.00;96860.16;10416026;28;2127;-66
2024/02/01 15:59:37;;;;;;;;;;;;;;;6.77;100.00;96861.63;10431127;28;2242;-66
2024/02/01 16:04:41;;;;;;;;;;;;;;;6.77;100.00;96865.13;10430315;28;2625;-65
2024/02/01 16:09:47;;;;;;;;;;;;;;;6.67;100.00;96878.16;10431450;28;2122;-67
2024/02/01 16:14:52;;;;;;;;;;;;;;;6.68;100.00;96870.97;10436295;28;2124;-67
2024/02/01 16:19:56;;;;;;;;;;;;;;;6.74;100.00;96870.09;10433758;28;2226;-68
2024/02/01 16:25:04;;;;;;;;;;;;;;;6.74;100.00;96883.44;10433072;28;2121;-72
2024/02/01 16:30:13;;;;;;;;;;;;;;;6.59;100.00;96872.31;10434780;28;2210;-68
2024/02/01 16:35:18;;;;;;;;;;;;;;;6.53;100.00;96886.56;10435787;28;2072;-70
2024/02/01 16:40:23;;;;;;;;;;;;;;;6.50;100.00;96896.66;10434075;28;2061;-70
2024/02/01 16:45:29;;;;;;;;;;;;;;;6.47;100.00;96902.41;10434834;28;2085;-68
2024/02/01 16:50:50;;;;;;;;;;;;;;;6.47;100.00;96913.09;10424492;28;2400;-67
2024/02/01 16:55:55;;;;;;;;;;;;;;;6.42;100.00;96904.91;10418879;28;2851;-68
2024/02/01 17:01:02;;;;;;;;;;;;;;;6.41;100.00;96921.97;10433271;28;2144;-67
2024/02/01 17:06:07;;;;;;;;;;;;;;;6.36;100.00;96924.53;10433884;28;2296;-68
2024/02/01 17:11:12;;;;;;;;;;;;;;;6.36;100.00;96931.69;10425360;28;2033;-67
2024/02/01 17:16:18;;;;;;;;;;;;;;;6.23;100.00;96937.94;10427959;28;2009;-70
2024/02/01 17:21:28;;;;;;;;;;;;;;;6.26;100.00;96936.72;10429818;28;2124;-66
2024/02/01 17:26:37;;;;;;;;;;;;;;;6.18;100.00;96937.81;10435872;28;2107;-67
2024/02/01 17:31:41;;;;;;;;;;;;;;;6.23;100.00;96943.28;10413730;28;2069;-67
2024/02/01 17:36:45;;;;;;;;;;;;;;;6.25;100.00;96951.91;10413667;28;2139;-67
2024/02/01 17:41:51;;;;;;;;;;;;;;;6.15;100.00;96955.06;10429930;28;2080;-69
2024/02/01 17:47:05;;;;;;;;;;;;;;;6.20;100.00;96949.09;10432455;28;1929;-68
2024/02/01 17:52:14;;;;;;;;;;;;;;;6.21;100.00;96961.38;10430442;28;2960;-68
2024/02/01 17:57:22;;;;;;;;;;;;;;;6.26;100.00;96964.22;10428360;28;2056;-67
2024/02/01 18:02:25;;;;;;;;;;;;;;;6.23;100.00;96970.00;10425436;28;2026;-66
2024/02/01 18:07:31;;;;;;;;;;;;;;;6.04;100.00;96969.09;10429185;28;2066;-66
2024/02/01 18:12:41;;;;;;;;;;;;;;;5.95;100.00;96973.88;10432605;28;2163;-67
2024/02/01 18:17:47;;;;;;;;;;;;;;;5.87;100.00;96986.66;10427842;28;1989;-66
2024/02/01 18:22:53;;;;;;;;;;;;;;;5.76;100.00;96990.78;10428878;28;2163;-66
2024/02/01 18:27:56;;;;;;;;;;;;;;;5.63;100.00;96999.69;10426602;28;2357;-67
2024/02/01 18:33:03;;;;;;;;;;;;;;;5.56;100.00;97011.41;10424211;28;2105;-66
2024/02/01 18:38:10;;;;;;;;;;;;;;;5.77;100.00;97011.09;10424152;28;2627;-66
2024/02/01 18:43:24;;;;;;;;;;;;;;;5.93;100.00;97016.00;10426690;28;2241;-68
2024/02/01 18:48:31;;;;;;;;;;;;;;;6.01;100.00;97020.25;10414461;28;2128;-68
2024/02/01 18:53:38;;;;;;;;;;;;;;;6.13;100.00;97023.06;10427524;28;2065;-67
2024/02/01 18:58:48;;;;;;;;;;;;;;;6.12;100.00;97024.09;10428467;28;2176;-67
2024/02/01 19:04:09;;;;;;;;;;;;;;;6.17;100.00;97024.25;10417684;28;2083;-67
2024/02/01 19:09:14;;;;;;;;;;;;;;;6.14;100.00;97025.50;10433816;28;2068;-67
2024/02/01 19:14:21;;;;;;;;;;;;;;;6.14;100.00;97022.84;10432739;28;2309;-66
2024/02/01 19:19:25;;;;;;;;;;;;;;;6.22;100.00;97027.91;10433106;28;2084;-67
2024/02/01 19:24:31;;;;;;;;;;;;;;;6.26;100.00;97022.16;10432932;28;2788;-66
2024/02/01 19:29:38;;;;;;;;;;;;;;;6.31;100.00;97020.50;10432298;28;2273;-68
2024/02/01 19:34:47;;;;;;;;;;;;;;;6.33;100.00;97020.25;10417397;28;2116;-72
2024/02/01 19:39:58;;;;;;;;;;;;;;;6.31;100.00;97009.81;10417282;28;2109;-71
2024/02/01 19:45:14;;;;;;;;;;;;;;;6.31;100.00;97015.16;10399336;28;2104;-67
2024/02/01 19:50:20;;;;;;;;;;;;;;;6.41;100.00;97020.81;10434613;28;2009;-69
2024/02/01 19:55:29;;;;;;;;;;;;;;;6.45;100.00;97019.34;10433510;28;2205;-68
2024/02/01 20:00:35;;;;;;;;;;;;;;;6.32;100.00;97031.97;10433381;28;2404;-67
2024/02/01 20:05:42;;;;;;;;;;;;;;;6.40;100.00;97029.03;10435810;28;2277;-68
2024/02/01 20:11:14;;;;;;;;;;;;;;;6.36;100.00;97023.34;10432874;28;2057;-66
2024/02/01 20:16:21;;;;;;;;;;;;;;;6.32;100.00;97031.97;10414357;28;2080;-66
2024/02/01 20:21:53;;;;;;;;;;;;;;;6.26;100.00;97039.00;10429456;28;2168;-67
2024/02/01 20:27:05;;;;;;;;;;;;;;;6.24;100.00;97035.75;10428021;28;1975;-72
2024/02/01 20:32:11;;;;;;;;;;;;;;;6.27;100.00;97034.47;10429242;28;2499;-70
2024/02/01 20:37:27;;;;;;;;;;;;;;;6.24;100.00;97025.06;10413534;28;2223;-69
2024/02/01 20:42:33;;;;;;;;;;;;;;;6.19;100.00;97030.22;10426521;28;1995;-73
2024/02/01 20:47:39;;;;;;;;;;;;;;;6.20;100.00;97021.97;10422549;28;2045;-65
2024/02/01 20:52:56;;;;;;;;;;;;;;;6.22;100.00;97033.25;10429488;28;1962;-70
2024/02/01 20:58:04;;;;;;;;;;;;;;;6.26;100.00;97028.31;10429560;28;2743;-66
2024/02/01 21:03:07;;;;;;;;;;;;;;;6.14;100.00;97030.84;10430997;28;2295;-66
2024/02/01 21:08:15;;;;;;;;;;;;;;;6.14;100.00;97022.84;10412485;28;2103;-66
2024/02/01 21:13:24;;;;;;;;;;;;;;;6.16;100.00;97035.97;10412354;28;2132;-68
2024/02/01 21:18:28;;;;;;;;;;;;;;;6.05;100.00;97031.34;10417013;28;2127;-68
2024/02/01 21:23:36;;;;;;;;;;;;;;;6.08;100.00;97022.88;10432442;28;2142;-66
2024/02/01 21:28:41;;;;;;;;;;;;;;;6.03;100.00;97038.72;10429158;28;2305;-64
2024/02/01 21:34:00;;;;;;;;;;;;;;;5.94;100.00;97038.97;10428838;28;2188;-64
2024/02/01 21:39:08;;;;;;;;;;;;;;;6.00;100.00;97036.50;10429081;28;2366;-68
2024/02/01 21:44:22;;;;;;;;;;;;;;;6.01;100.00;97036.28;10412280;28;2056;-67
2024/02/01 21:49:34;;;;;;;;;;;;;;;6.06;100.00;97054.31;10429820;28;2098;-67
2024/02/01 21:54:40;;;;;;;;;;;;;;;6.06;100.00;97054.31;10412732;28;2040;-66
2024/02/01 22:00:00;;;;;;;;;;;;;;;6.09;100.00;97072.56;10415833;28;2318;-65
2024/02/01 22:05:14;;;;;;;;;;;;;;;6.06;100.00;97062.34;10411335;28;2069;-67
2024/02/01 22:10:25;;;;;;;;;;;;;;;6.02;100.00;97074.47;10413139;28;2102;-67
2024/02/01 22:15:32;;;;;;;;;;;;;;;5.94;100.00;97073.66;10438478;28;2088;-66
2024/02/01 22:20:36;;;;;;;;;;;;;;;5.91;100.00;97063.41;10427306;28;2934;-67
2024/02/01 22:25:44;;;;;;;;;;;;;;;5.72;100.00;97074.13;10426250;28;2292;-67
2024/02/01 22:30:48;;;;;;;;;;;;;;;5.50;100.00;97076.25;10428165;28;2154;-66
2024/02/01 22:35:59;;;;;;;;;;;;;;;5.29;100.00;97080.84;10413781;28;2073;-66
2024/02/01 22:41:04;;;;;;;;;;;;;;;5.10;100.00;97076.34;10411140;28;2224;-67
2024/02/01 22:46:10;;;;;;;;;;;;;;;5.04;100.00;97079.84;10427486;28;2178;-69
2024/02/01 22:51:18;;;;;;;;;;;;;;;5.22;100.00;97077.38;10431181;28;2225;-66
2024/02/01 22:56:23;;;;;;;;;;;;;;;5.44;100.00;97072.59;10427986;28;2120;-66
2024/02/01 23:01:29;;;;;;;;;;;;;;;5.50;100.00;97073.59;10427003;28;2130;-66
2024/02/01 23:06:38;;;;;;;;;;;;;;;5.56;100.00;97070.09;10428159;28;2120;-66
2024/02/01 23:11:43;;;;;;;;;;;;;;;5.43;100.00;97065.63;10405162;28;2064;-67
2024/02/01 23:16:51;;;;;;;;;;;;;;;5.46;100.00;97059.84;10430482;28;2582;-67
2024/02/01 23:22:01;;;;;;;;;;;;;;;5.43;100.00;97060.28;10410688;28;2163;-66
2024/02/01 23:27:07;;;;;;;;;;;;;;;5.50;100.00;97058.41;10412309;28;2237;-65
2024/02/01 23:32:13;;;;;;;;;;;;;;;5.53;100.00;97060.66;10426420;28;2072;-66
2024/02/01 23:37:23;;;;;;;;;;;;;;;5.61;100.00;97062.28;10411707;28;2300;-66
2024/02/01 23:42:27;;;;;;;;;;;;;;;5.73;100.00;97060.59;10426504;28;1975;-70
2024/02/01 23:47:36;;;;;;;;;;;;;;;5.76;100.00;97057.50;10427852;28;2099;-66
2024/02/01 23:52:45;;;;;;;;;;;;;;;5.86;100.00;97060.53;10432982;28;2119;-68
2024/02/01 23:57:49;;;;;;;;;;;;;;;5.83;100.00;97070.81;10435472;28;2064;-67
